Terminal Aerodrome Forecast
Issued by NWS Sterling, VA

Current Version | Previous Version | Graphics & Text | Print | Product List | Glossary On
Versions: 1 2 3 4 5 6 7 8 9 10 11 12 13 14 15 16 17 18 19 20 21 22 23 24
000
FTUS41 KLWX 161122
TAFDCA
TAF
KDCA 161122Z 1612/1718 21011G20KT 4SM -SHRA OVC020
     FM161400 26012G22KT 4SM -SHRA OVC030
     FM161800 28014G23KT P6SM OVC035
     FM170500 28010G20KT P6SM SCT070
     FM171400 27012G21KT P6SM BKN045=

USA.gov is the U.S. government's official web portal to all federal, state and local government web resources and services.